Time;durP1;ratioP1;P1;durP2;ratioP2;P2;SDS_P1;SDS_P2;PMS_P1;PMS_P2;Temp;Humidity;BMP_temperature;BMP_pressure;BME280_temperature;BME280_humidity;BME280_pressure;Samples;Min_cycle;Max_cycle;Signal;HPM_P1;HPM_P2
2022/06/02 03:00:21;;;;;;;20.45;12.80;;;7.90;99.90;;;;;;6250330;22;20802;31
2022/06/02 03:03:17;;;;;;;18.80;12.10;;;7.90;99.90;;;;;;6273838;22;20012;-77
2022/06/02 03:06:00;;;;;;;19.08;12.60;;;7.90;99.90;;;;;;6277440;22;20007;-76
2022/06/02 03:08:36;;;;;;;20.35;12.20;;;7.80;99.90;;;;;;6249941;22;20019;-76
2022/06/02 03:11:18;;;;;;;21.08;13.65;;;7.80;99.90;;;;;;6249819;22;20095;-76
2022/06/02 03:14:03;;;;;;;19.52;13.18;;;7.80;99.90;;;;;;6277412;22;20015;-78
2022/06/02 03:16:32;;;;;;;19.80;12.57;;;7.80;99.90;;;;;;6249854;22;20015;-76
2022/06/02 03:19:15;;;;;;;21.23;12.77;;;7.90;99.90;;;;;;6277180;22;20370;-80
2022/06/02 03:22:14;;;;;;;17.05;11.05;;;7.80;99.90;;;;;;6249705;22;20023;-78
2022/06/02 03:25:25;;;;;;;17.75;11.98;;;7.80;99.90;;;;;;6276870;22;20095;-79
2022/06/02 03:28:10;;;;;;;18.52;11.43;;;7.80;99.90;;;;;;6242490;22;20020;-77
2022/06/02 03:31:14;;;;;;;20.10;12.57;;;7.80;99.90;;;;;;6277364;22;20023;-79
2022/06/02 03:34:09;;;;;;;19.30;12.05;;;7.80;99.90;;;;;;6276883;22;20012;-79
2022/06/02 03:36:56;;;;;;;17.70;11.77;;;7.80;99.90;;;;;;6193208;22;20012;-76
2022/06/02 03:40:01;;;;;;;18.55;11.98;;;7.80;99.90;;;;;;6249742;22;20019;-77
2022/06/02 03:42:44;;;;;;;17.05;11.23;;;7.70;99.90;;;;;;6198466;22;20053;-78
2022/06/02 03:45:32;;;;;;;16.95;11.18;;;7.70;99.90;;;;;;6276181;22;20030;-75
2022/06/02 03:48:07;;;;;;;19.83;12.10;;;7.70;99.90;;;;;;6249608;22;20073;-78
2022/06/02 03:50:41;;;;;;;20.65;12.45;;;7.70;99.90;;;;;;6276790;22;20026;-76
2022/06/02 03:53:19;;;;;;;18.23;12.32;;;7.60;99.90;;;;;;6249645;22;20011;-78
2022/06/02 03:55:54;;;;;;;18.02;12.13;;;7.60;99.90;;;;;;6276802;22;20090;-77
2022/06/02 03:58:38;;;;;;;18.25;12.38;;;7.70;99.90;;;;;;6275303;22;20019;-79
2022/06/02 04:01:11;;;;;;;17.85;11.35;;;7.70;99.90;;;;;;6249330;22;20015;-77
2022/06/02 04:04:05;;;;;;;17.63;11.30;;;7.70;99.90;;;;;;6254265;22;20011;-74
2022/06/02 04:06:40;;;;;;;18.73;11.95;;;7.60;99.90;;;;;;6260875;22;20019;-76
2022/06/02 04:09:25;;;;;;;;;;;7.60;99.90;;;;;;6250994;22;20445;-79
2022/06/02 04:15:11;;;;;;;22.38;13.57;;;7.60;99.90;;;;;;6276867;22;20022;-75
2022/06/02 04:18:02;;;;;;;21.42;13.70;;;7.60;99.90;;;;;;6276767;22;20430;-78
2022/06/02 04:20:41;;;;;;;24.58;15.23;;;7.70;99.90;;;;;;6249654;22;20018;-79
2022/06/02 04:23:28;;;;;;;27.40;15.88;;;7.70;99.90;;;;;;6276900;22;20019;-77
2022/06/02 04:26:20;;;;;;;28.75;16.08;;;7.70;99.90;;;;;;6276911;22;20011;-79
2022/06/02 04:29:31;;;;;;;27.70;15.57;;;7.80;99.90;;;;;;6276801;22;20016;-76
2022/06/02 04:32:11;;;;;;;28.05;16.55;;;7.80;99.90;;;;;;6276472;22;20473;-78
2022/06/02 04:35:00;;;;;;;24.73;16.05;;;7.90;99.90;;;;;;6276724;22;20070;-77
2022/06/02 04:37:32;;;;;;;25.33;15.52;;;7.90;99.90;;;;;;6251079;22;20011;-77
2022/06/02 04:40:06;;;;;;;25.23;15.40;;;7.90;99.90;;;;;;6251417;22;20078;-77
2022/06/02 04:42:34;;;;;;;26.08;14.95;;;8.00;99.90;;;;;;6251186;22;20031;-79
2022/06/02 04:45:10;;;;;;;26.17;16.20;;;8.10;99.90;;;;;;6226029;22;20011;-76
2022/06/02 04:47:48;;;;;;;;;;;8.10;99.90;;;;;;6279404;22;20086;-79
2022/06/02 04:50:37;;;;;;;23.92;14.93;;;8.20;99.90;;;;;;6251985;22;19917;-75
2022/06/02 04:53:34;;;;;;;25.35;14.32;;;8.20;99.90;;;;;;6250221;22;20016;-78
2022/06/02 04:56:02;;;;;;;;;;;8.30;99.90;;;;;;6279151;22;20011;-77
2022/06/02 04:58:47;;;;;;;22.30;13.45;;;8.30;99.90;;;;;;6303397;22;19934;-77
2022/06/02 05:01:21;;;;;;;23.83;14.60;;;8.30;99.90;;;;;;6251080;22;20011;-78
2022/06/02 05:04:15;;;;;;;24.05;14.85;;;8.40;99.90;;;;;;6251040;22;20020;-77
2022/06/02 05:06:54;;;;;;;28.48;15.30;;;8.50;99.90;;;;;;6251185;22;20015;-78
2022/06/02 05:09:30;;;;;;;25.17;14.63;;;8.50;99.90;;;;;;6250984;22;20047;-78
2022/06/02 05:12:30;;;;;;;25.98;15.68;;;8.60;99.90;;;;;;6250993;22;20019;-77
2022/06/02 05:15:01;;;;;;;26.17;15.15;;;8.70;99.90;;;;;;6278415;22;20054;-78
2022/06/02 05:17:49;;;;;;;28.20;16.08;;;8.70;99.90;;;;;;6250774;22;20495;-77
2022/06/02 05:20:36;;;;;;;25.50;15.50;;;8.80;99.90;;;;;;6250887;22;20083;-79
2022/06/02 05:23:29;;;;;;;24.85;15.00;;;8.90;99.90;;;;;;6251160;22;20445;-78
2022/06/02 05:26:04;;;;;;;25.05;15.73;;;9.00;99.90;;;;;;6225661;22;20023;-78
2022/06/02 05:28:38;;;;;;;22.08;14.60;;;9.00;99.90;;;;;;6251172;22;20022;-77
2022/06/02 05:31:55;;;;;;;19.40;13.87;;;9.10;99.90;;;;;;6250775;22;20345;-78
2022/06/02 05:34:36;;;;;;;22.95;13.73;;;9.20;99.90;;;;;;6188402;22;20012;-76
2022/06/02 05:37:33;;;;;;;18.08;12.40;;;9.30;99.90;;;;;;6250732;22;20464;-78
2022/06/02 05:40:14;;;;;;;21.25;13.60;;;9.40;99.90;;;;;;6225480;22;20019;-77
2022/06/02 05:43:03;;;;;;;23.15;13.27;;;9.50;99.90;;;;;;6278625;22;20007;-80
2022/06/02 05:46:00;;;;;;;19.58;12.57;;;9.60;99.90;;;;;;6257517;22;20012;-77
2022/06/02 05:48:46;;;;;;;19.10;12.43;;;9.70;99.90;;;;;;6249998;22;20043;-77
2022/06/02 05:51:17;;;;;;;16.90;11.52;;;9.80;99.90;;;;;;6276135;22;20022;-76
2022/06/02 05:54:12;;;;;;;18.08;10.77;;;9.90;99.90;;;;;;6250646;22;20015;-77
2022/06/02 05:57:17;;;;;;;14.68;9.65;;;10.00;99.90;;;;;;6277516;22;20046;-77
2022/06/02 06:00:23;;;;;;;15.93;10.70;;;10.20;99.90;;;;;;6249506;22;20089;-77
2022/06/02 06:03:16;;;;;;;12.73;9.02;;;10.30;99.90;;;;;;6225252;22;20441;-78
2022/06/02 06:05:46;;;;;;;12.00;8.18;;;10.50;99.90;;;;;;6277819;22;20077;-76
2022/06/02 06:08:27;;;;;;;11.80;8.00;;;10.60;99.90;;;;;;6277215;22;20012;-76
2022/06/02 06:11:10;;;;;;;13.43;8.07;;;10.60;99.90;;;;;;6250514;22;20015;-81
2022/06/02 06:13:54;;;;;;;10.23;8.05;;;10.70;99.90;;;;;;6250647;22;20012;-77
2022/06/02 06:16:29;;;;;;;11.93;7.03;;;10.80;99.90;;;;;;6277966;22;20058;-77
2022/06/02 06:19:32;;;;;;;9.48;6.53;;;10.80;99.90;;;;;;6277614;22;20016;-77
2022/06/02 06:22:04;;;;;;;10.00;6.63;;;10.90;99.90;;;;;;6250021;22;20012;-77
2022/06/02 06:24:59;;;;;;;7.68;5.88;;;10.90;99.90;;;;;;6250108;22;20513;-79
2022/06/02 06:27:39;;;;;;;9.48;6.07;;;11.00;99.90;;;;;;6250403;22;20047;-76
2022/06/02 06:30:52;;;;;;;10.50;6.05;;;11.10;99.90;;;;;;6250230;22;20016;-79
2022/06/02 06:33:38;;;;;;;9.98;6.60;;;11.10;99.90;;;;;;6129280;23;20348;-78
2022/06/02 06:36:10;;;;;;;;;;;11.20;99.90;;;;;;6242611;22;20441;-77
2022/06/02 06:39:00;;;;;;;11.13;6.40;;;11.30;99.90;;;;;;6275584;22;19938;-77
2022/06/02 06:41:52;;;;;;;13.45;7.45;;;11.40;99.90;;;;;;6250111;22;20627;-81
2022/06/02 06:44:21;;;;;;;8.75;5.68;;;11.50;99.90;;;;;;6228553;22;20383;-78
2022/06/02 06:47:09;;;;;;;7.75;5.38;;;11.70;99.90;;;;;;6250008;22;20015;-80
2022/06/02 06:49:51;;;;;;;9.10;4.90;;;11.70;99.90;;;;;;6250147;22;20004;-79
2022/06/02 06:52:54;;;;;;;6.63;3.67;;;11.80;99.90;;;;;;6249989;22;20016;-77
2022/06/02 06:55:45;;;;;;;7.78;4.50;;;11.90;99.90;;;;;;6249892;22;20023;-77
2022/06/02 06:58:35;;;;;;;5.53;3.60;;;11.90;99.90;;;;;;6249882;22;20015;-75
2022/06/02 07:01:07;;;;;;;7.15;4.10;;;12.00;99.90;;;;;;6249589;22;20069;-78
2022/06/02 07:04:14;;;;;;;5.32;3.50;;;12.10;99.90;;;;;;6250240;22;20381;-79
2022/06/02 07:07:13;;;;;;;6.32;3.70;;;12.10;99.90;;;;;;6249962;22;20015;-80
2022/06/02 07:09:59;;;;;;;5.25;3.40;;;12.20;99.90;;;;;;6249766;22;20014;-77
2022/06/02 07:13:02;;;;;;;5.43;3.50;;;12.30;99.90;;;;;;6277016;22;20319;-80
2022/06/02 07:15:59;;;;;;;6.63;3.20;;;12.30;99.90;;;;;;6249973;22;20057;-80
2022/06/02 07:18:38;;;;;;;7.15;2.80;;;12.40;99.90;;;;;;6250102;22;20054;-77
2022/06/02 07:21:20;;;;;;;3.75;2.50;;;12.50;99.90;;;;;;6249686;22;20099;-78
2022/06/02 07:24:15;;;;;;;3.70;2.03;;;12.50;99.90;;;;;;6250583;22;20023;-79
2022/06/02 07:27:00;;;;;;;4.15;2.15;;;12.60;99.90;;;;;;6226640;22;20461;-80
2022/06/02 07:29:39;;;;;;;3.77;2.20;;;12.60;99.90;;;;;;6249786;22;20065;-80
2022/06/02 07:32:35;;;;;;;4.57;1.77;;;12.70;99.90;;;;;;6249767;22;20246;-76
2022/06/02 07:35:19;;;;;;;5.00;1.80;;;12.80;99.90;;;;;;6249602;22;20438;-76
2022/06/02 07:37:57;;;;;;;3.72;1.52;;;13.00;99.90;;;;;;6249752;22;20012;-80
2022/06/02 07:40:25;;;;;;;2.35;1.50;;;13.10;99.90;;;;;;6277092;22;20016;-80
2022/06/02 07:43:11;;;;;;;3.13;1.48;;;13.10;99.90;;;;;;6249706;22;20157;-79
2022/06/02 07:45:46;;;;;;;2.80;1.90;;;13.20;99.90;;;;;;6249671;22;20081;-77
2022/06/02 07:48:33;;;;;;;2.80;1.80;;;13.10;99.90;;;;;;6249467;22;20018;-76
2022/06/02 07:51:13;;;;;;;5.07;1.83;;;13.20;99.90;;;;;;6277137;22;20011;-77
2022/06/02 07:54:04;;;;;;;3.08;1.50;;;13.10;99.90;;;;;;6249859;22;20008;-77
2022/06/02 07:56:39;;;;;;;5.63;1.85;;;13.10;99.90;;;;;;6276838;22;20015;-76
2022/06/02 07:59:11;;;;;;;3.78;1.60;;;13.10;99.90;;;;;;6250551;22;20437;-77
2022/06/02 08:02:15;;;;;;;5.20;1.92;;;13.20;99.90;;;;;;6250187;22;20333;-81
2022/06/02 08:05:00;;;;;;;2.55;1.73;;;13.20;99.90;;;;;;6224422;22;20011;-76
2022/06/02 08:07:34;;;;;;;3.80;2.00;;;13.40;99.90;;;;;;6249659;22;20016;-78
2022/06/02 08:10:18;;;;;;;4.13;1.70;;;13.60;99.90;;;;;;6249772;22;20434;-78
2022/06/02 08:12:49;;;;;;;2.58;1.77;;;13.70;99.90;;;;;;6278846;22;20393;-79
2022/06/02 08:15:39;;;;;;;2.65;1.70;;;13.80;99.90;;;;;;6251587;22;20043;-78
2022/06/02 08:18:20;;;;;;;4.15;1.80;;;13.80;99.90;;;;;;6251858;22;20430;-78
2022/06/02 08:21:17;;;;;;;3.85;1.83;;;13.90;99.90;;;;;;6251868;22;20020;-77
2022/06/02 08:23:55;;;;;;;3.75;1.77;;;14.10;99.90;;;;;;6251701;22;20083;-77
2022/06/02 08:26:42;;;;;;;3.10;1.55;;;14.20;99.90;;;;;;6253548;22;20012;-76
2022/06/02 08:29:28;;;;;;;4.03;1.70;;;14.20;99.90;;;;;;6278009;22;20007;-77
2022/06/02 08:32:20;;;;;;;3.53;1.48;;;14.10;99.90;;;;;;6227738;22;20015;-79
2022/06/02 08:35:11;;;;;;;2.20;1.33;;;14.10;99.90;;;;;;6251613;22;20047;-77
2022/06/02 08:37:45;;;;;;;4.47;1.60;;;14.20;99.90;;;;;;6278968;22;20008;-77
2022/06/02 08:40:23;;;;;;;3.20;1.50;;;14.30;99.90;;;;;;6251577;22;20023;-81
2022/06/02 08:43:15;;;;;;;3.70;1.70;;;14.60;99.90;;;;;;6253230;22;20043;-76
2022/06/02 08:45:52;;;;;;;4.68;1.88;;;14.60;99.90;;;;;;6245367;22;20016;-75
2022/06/02 08:48:56;;;;;;;3.28;1.65;;;14.50;99.90;;;;;;6256514;22;20383;-76
2022/06/02 08:51:59;;;;;;;4.30;1.70;;;14.50;99.90;;;;;;6279230;22;20012;-77
2022/06/02 08:54:46;;;;;;;2.70;1.67;;;14.60;99.90;;;;;;6278665;22;20434;-77
2022/06/02 08:57:27;;;;;;;3.35;1.45;;;14.80;99.90;;;;;;6251424;22;20022;-76
2022/06/02 09:00:19;;;;;;;2.45;1.65;;;14.90;99.90;;;;;;6251328;22;20047;-80
2022/06/02 09:03:13;;;;;;;3.55;1.50;;;14.60;99.90;;;;;;6251645;22;20012;-78
2022/06/02 09:06:05;;;;;;;3.60;1.65;;;14.50;99.90;;;;;;6226362;22;20034;-78
2022/06/02 09:09:09;;;;;;;3.35;2.30;;;14.40;99.90;;;;;;6251192;22;20087;-79
2022/06/02 09:12:22;;;;;;;3.72;1.70;;;14.50;99.90;;;;;;6190233;22;20433;-77
2022/06/02 09:15:20;;;;;;;2.67;1.35;;;14.80;99.90;;;;;;6252451;22;20019;-75
2022/06/02 09:18:10;;;;;;;3.28;1.50;;;15.00;99.90;;;;;;6252593;22;20437;-78
2022/06/02 09:21:19;;;;;;;1.95;1.17;;;15.00;99.90;;;;;;6251695;22;20093;-77
2022/06/02 09:23:48;;;;;;;3.72;1.38;;;14.90;99.90;;;;;;6170010;22;20023;-76
2022/06/02 09:26:37;;;;;;;3.95;1.50;;;14.80;99.90;;;;;;6251985;22;20015;-77
2022/06/02 09:29:11;;;;;;;2.50;1.40;;;14.70;99.90;;;;;;6278949;22;20468;-78
2022/06/02 09:31:43;;;;;;;3.17;1.50;;;14.90;99.90;;;;;;6250883;22;20341;-76
2022/06/02 09:34:14;;;;;;;3.28;1.50;;;15.20;99.90;;;;;;6250958;22;20549;-78
2022/06/02 09:36:43;;;;;;;3.85;1.60;;;15.40;99.90;;;;;;6250857;22;20012;-77
2022/06/02 09:39:35;;;;;;;4.63;1.65;;;15.70;99.90;;;;;;6250752;22;20015;-77
2022/06/02 09:42:03;;;;;;;2.92;1.60;;;15.80;99.90;;;;;;6277998;22;20016;-75
2022/06/02 09:45:33;;;;;;;3.08;1.52;;;15.60;99.90;;;;;;6250802;22;20433;-76
2022/06/02 09:48:28;;;;;;;3.38;1.50;;;15.50;99.90;;;;;;6123235;23;20379;-77
2022/06/02 09:51:21;;;;;;;2.55;1.35;;;15.30;99.90;;;;;;6081748;23;20014;-77
2022/06/02 09:54:05;;;;;;;2.40;1.50;;;15.30;99.90;;;;;;6232680;22;20345;-76
2022/06/02 09:56:59;;;;;;;4.15;1.50;;;15.40;99.90;;;;;;6250783;22;20022;-76
2022/06/02 09:59:38;;;;;;;3.97;1.38;;;15.40;99.90;;;;;;6250514;22;20438;-77
2022/06/02 10:02:19;;;;;;;2.63;1.40;;;15.50;99.90;;;;;;6277792;22;20004;-79
2022/06/02 10:05:02;;;;;;;2.20;1.50;;;15.60;99.90;;;;;;6278266;22;20012;-77
2022/06/02 10:07:49;;;;;;;2.40;1.60;;;15.50;99.90;;;;;;6250612;22;20445;-76
2022/06/02 10:10:40;;;;;;;4.10;1.75;;;15.40;99.90;;;;;;6278137;22;20008;-76
2022/06/02 10:13:30;;;;;;;2.72;1.63;;;15.40;99.90;;;;;;6229393;22;20022;-79
2022/06/02 10:16:16;;;;;;;3.70;1.58;;;15.40;99.90;;;;;;6250360;22;20015;-75
2022/06/02 10:19:12;;;;;;;3.03;1.40;;;15.40;99.90;;;;;;6250399;22;20434;-76
2022/06/02 10:21:47;;;;;;;2.92;1.63;;;15.50;99.90;;;;;;6250207;22;20039;-78
2022/06/02 10:24:48;;;;;;;3.05;1.58;;;15.60;99.90;;;;;;6250474;22;20020;-76
2022/06/02 10:27:42;;;;;;;5.40;1.40;;;15.70;99.90;;;;;;6250515;22;20018;-78
2022/06/02 10:30:26;;;;;;;2.45;1.50;;;15.80;99.90;;;;;;6250169;22;20510;-77
2022/06/02 10:32:52;;;;;;;2.78;1.45;;;15.90;99.90;;;;;;6225000;22;20130;-78
2022/06/02 10:35:36;;;;;;;4.55;1.50;;;15.80;99.90;;;;;;6249802;22;20403;-78
2022/06/02 10:38:11;;;;;;;3.10;1.63;;;15.80;99.90;;;;;;6250402;22;20012;-78
2022/06/02 10:40:48;;;;;;;3.08;1.50;;;15.70;99.90;;;;;;6250142;22;20445;-78
2022/06/02 10:43:41;;;;;;;3.85;1.40;;;15.60;99.90;;;;;;6250211;22;20016;-80
2022/06/02 10:46:39;;;;;;;3.50;1.83;;;15.70;99.90;;;;;;6250284;22;20022;-78
2022/06/02 10:49:26;;;;;;;5.53;2.25;;;15.70;99.90;;;;;;6250251;22;20010;-78
2022/06/02 10:52:14;;;;;;;5.03;1.50;;;15.60;99.90;;;;;;6250313;22;20022;-78
2022/06/02 10:55:08;;;;;;;3.53;1.60;;;15.70;99.90;;;;;;6220109;22;20011;-79
2022/06/02 10:57:53;;;;;;;2.78;1.63;;;15.70;99.90;;;;;;6194522;22;20338;-79
2022/06/02 11:00:53;;;;;;;3.03;1.30;;;15.80;99.90;;;;;;6250072;22;20015;-77
2022/06/02 11:03:50;;;;;;;4.13;1.75;;;15.80;99.90;;;;;;6250210;22;20528;-79
2022/06/02 11:06:28;;;;;;;;;;;15.90;99.90;;;;;;6277619;22;20334;-77
2022/06/02 11:09:31;;;;;;;2.75;1.30;;;16.20;99.90;;;;;;6277453;22;19960;-76
2022/06/02 11:12:22;;;;;;;5.93;1.38;;;16.60;99.90;;;;;;6225472;22;20094;-78
2022/06/02 11:15:00;;;;;;;2.60;1.20;;;16.90;99.90;;;;;;6277372;22;20038;-77
2022/06/02 11:17:41;;;;;;;2.58;1.30;;;17.30;99.90;;;;;;6250010;22;20448;-79
2022/06/02 11:20:35;;;;;;;2.97;1.40;;;17.60;99.90;;;;;;6250220;22;20448;-78
2022/06/02 11:23:32;;;;;;;2.72;1.27;;;18.00;99.90;;;;;;6277478;22;20386;-76
2022/06/02 11:26:44;;;;;;;2.22;1.20;;;18.30;99.90;;;;;;6250162;22;20023;-78
2022/06/02 11:29:31;;;;;;;2.75;1.40;;;18.40;99.90;;;;;;6180946;22;20019;-79
2022/06/02 11:32:19;;;;;;;3.60;1.20;;;18.40;99.90;;;;;;6249839;22;20019;-78
2022/06/02 11:35:00;;;;;;;3.97;1.35;;;18.60;99.90;;;;;;6250077;22;20430;-80
2022/06/02 11:37:28;;;;;;;2.30;1.20;;;18.50;99.90;;;;;;6224642;22;20012;-79
2022/06/02 11:40:36;;;;;;;3.40;1.40;;;18.40;99.90;;;;;;6224868;22;20008;-77
2022/06/02 11:43:12;;;;;;;3.85;1.40;;;18.30;99.90;;;;;;6250008;22;20011;-77
2022/06/02 11:45:46;;;;;;;4.05;1.30;;;18.00;99.90;;;;;;6224862;22;20015;-84
2022/06/02 11:48:27;;;;;;;3.50;1.50;;;17.70;99.90;;;;;;6250420;22;20012;-78
2022/06/02 11:50:58;;;;;;;2.22;1.50;;;17.40;99.90;;;;;;6249665;22;20022;-77
2022/06/02 11:54:06;;;;;;;2.70;1.40;;;17.50;99.90;;;;;;6249756;22;20090;-79
2022/06/02 11:57:08;;;;;;;2.95;1.20;;;17.50;99.90;;;;;;6250194;22;20330;-77
2022/06/02 12:00:00;;;;;;;2.42;1.40;;;17.40;99.90;;;;;;6251173;22;20015;-77
2022/06/02 12:02:53;;;;;;;2.30;1.20;;;17.30;99.90;;;;;;6250065;22;20016;-77
2022/06/02 12:05:38;;;;;;;1.65;1.15;;;17.20;99.90;;;;;;6249644;22;20011;-81
2022/06/02 12:08:40;;;;;;;3.40;1.35;;;17.10;99.90;;;;;;6277232;22;20385;-78
2022/06/02 12:11:21;;;;;;;4.10;1.38;;;17.70;99.90;;;;;;6249450;22;20361;-79
2022/06/02 12:14:09;;;;;;;3.20;1.13;;;18.00;99.90;;;;;;6249671;22;20095;-77
2022/06/02 12:17:11;;;;;;;2.45;1.02;;;18.30;99.90;;;;;;6249671;22;20084;-78
2022/06/02 12:19:49;;;;;;;1.75;1.10;;;18.60;99.90;;;;;;6249716;22;20047;-79
2022/06/02 12:22:38;;;;;;;5.55;1.20;;;18.40;99.90;;;;;;6276962;22;20047;-79
2022/06/02 12:25:10;;;;;;;2.15;1.10;;;18.10;99.90;;;;;;6249567;22;20330;-78
2022/06/02 12:27:36;;;;;;;3.70;1.80;;;18.20;99.90;;;;;;6249506;22;20021;-77
2022/06/02 12:30:23;;;;;;;2.58;1.20;;;18.20;99.90;;;;;;6249456;22;20022;-78
2022/06/02 12:33:09;;;;;;;2.88;1.60;;;18.30;99.90;;;;;;6276923;22;20044;-77
2022/06/02 12:35:50;;;;;;;;;;;18.30;99.90;;;;;;6224740;22;20389;-77
2022/06/02 12:38:54;;;;;;;3.15;1.42;;;18.10;99.90;;;;;;6249480;22;20337;-76
2022/06/02 12:41:28;;;;;;;2.70;1.25;;;17.90;99.90;;;;;;6249386;22;20061;-77
2022/06/02 12:44:11;;;;;;;4.82;1.30;;;17.80;99.90;;;;;;6276956;22;20014;-78
2022/06/02 12:46:52;;;;;;;2.63;1.30;;;17.70;99.90;;;;;;6249470;22;20012;-76
2022/06/02 12:49:43;;;;;;;2.22;1.15;;;17.60;99.90;;;;;;6276414;22;20083;-77
2022/06/02 12:52:22;;;;;;;2.38;1.42;;;17.60;99.90;;;;;;6249429;22;20015;-77
2022/06/02 12:55:02;;;;;;;6.07;1.58;;;17.30;99.90;;;;;;6249468;22;20011;-76
2022/06/02 12:57:56;;;;;;;2.45;1.25;;;17.40;99.90;;;;;;6250214;22;20007;-77
2022/06/02 13:00:40;;;;;;;3.08;1.40;;;17.70;99.90;;;;;;6251167;22;20023;-78
2022/06/02 13:03:24;;;;;;;2.60;1.30;;;18.10;99.90;;;;;;6251284;22;20117;-77
2022/06/02 13:06:23;;;;;;;3.83;1.60;;;18.50;99.90;;;;;;6251211;22;20568;-77
2022/06/02 13:09:12;;;;;;;3.70;2.00;;;18.70;99.90;;;;;;6251136;22;20082;-78
2022/06/02 13:11:49;;;;;;;3.13;1.65;;;19.00;99.90;;;;;;6250394;22;20035;-78
2022/06/02 13:14:34;;;;;;;3.30;1.30;;;19.10;99.90;;;;;;6278799;22;20091;-76
2022/06/02 13:17:12;;;;;;;2.45;1.10;;;19.20;99.90;;;;;;6251154;22;20467;-76
2022/06/02 13:19:50;;;;;;;2.50;1.40;;;19.40;99.90;;;;;;6251044;22;20054;-77
2022/06/02 13:22:43;;;;;;;2.17;1.17;;;19.50;99.90;;;;;;6225700;22;20022;-78
2022/06/02 13:25:23;;;;;;;3.53;1.50;;;19.80;99.90;;;;;;6251054;22;20015;-77
2022/06/02 13:28:20;;;;;;;1.60;1.17;;;20.10;99.90;;;;;;6278917;22;20418;-78
2022/06/02 13:31:26;;;;;;;2.92;1.40;;;20.30;99.90;;;;;;6278169;22;20015;-77
2022/06/02 13:34:10;;;;;;;1.88;1.00;;;20.30;99.90;;;;;;6251143;22;20018;-78
2022/06/02 13:37:00;;;;;;;2.60;1.30;;;20.80;99.90;;;;;;6250837;22;20034;-77
2022/06/02 13:40:03;;;;;;;2.55;1.17;;;21.20;99.90;;;;;;6251019;22;20012;-78
2022/06/02 13:43:07;;;;;;;2.60;1.20;;;21.20;99.90;;;;;;6250886;22;20015;-77
2022/06/02 13:45:47;;;;;;;2.25;1.10;;;21.00;99.90;;;;;;6250947;22;20030;-77
2022/06/02 13:48:50;;;;;;;1.98;1.20;;;20.60;99.90;;;;;;6250862;22;20012;-77
2022/06/02 13:51:17;;;;;;;5.57;1.10;;;20.30;99.90;;;;;;6251164;22;20016;-77
2022/06/02 13:57:32;;;;;;;2.92;1.10;;;19.70;99.90;;;;;;6230121;22;20020;-78
2022/06/02 14:00:10;;;;;;;1.52;1.10;;;19.50;99.90;;;;;;6277883;22;20012;-78
2022/06/02 14:03:09;;;;;;;3.38;1.20;;;19.40;99.90;;;;;;6250406;22;20016;-78
2022/06/02 14:06:06;;;;;;;2.22;1.17;;;19.40;99.90;;;;;;6250652;22;20016;-77
2022/06/02 14:09:09;;;;;;;3.20;1.42;;;19.20;99.90;;;;;;6249911;22;20011;-77
2022/06/02 14:12:05;;;;;;;3.30;1.10;;;19.00;99.90;;;;;;6250602;22;20022;-78
2022/06/02 14:14:47;;;;;;;3.13;1.20;;;18.90;99.90;;;;;;6277836;22;20425;-78
2022/06/02 14:17:27;;;;;;;3.35;1.20;;;18.90;99.90;;;;;;6250595;22;20015;-77
2022/06/02 14:20:07;;;;;;;2.83;1.27;;;19.10;99.90;;;;;;6250486;22;20511;-78
2022/06/02 14:22:39;;;;;;;2.25;1.20;;;19.10;99.90;;;;;;6225013;22;20077;-77
2022/06/02 14:25:05;;;;;;;2.80;1.30;;;19.20;99.90;;;;;;6250262;22;20016;-77
2022/06/02 14:27:49;;;;;;;2.38;1.17;;;19.40;99.90;;;;;;6250380;22;20023;-77
2022/06/02 14:30:25;;;;;;;2.33;1.20;;;19.50;99.90;;;;;;6250307;22;20011;-77
2022/06/02 14:32:56;;;;;;;3.45;1.40;;;19.40;99.90;;;;;;6250417;22;20446;-77
2022/06/02 14:35:25;;;;;;;2.45;1.10;;;19.20;99.90;;;;;;6225050;22;20012;-76
2022/06/02 14:38:19;;;;;;;1.92;1.40;;;19.00;99.90;;;;;;6278001;22;20012;-80
2022/06/02 14:40:47;;;;;;;1.90;1.13;;;18.90;99.90;;;;;;6277302;22;20066;-77
2022/06/02 14:43:22;;;;;;;2.67;1.25;;;18.80;99.90;;;;;;6250293;22;20086;-76
2022/06/02 14:46:00;;;;;;;1.80;1.05;;;18.70;99.90;;;;;;6277354;22;20438;-80
2022/06/02 14:48:36;;;;;;;2.17;1.20;;;18.60;99.90;;;;;;6250162;22;20418;-77
2022/06/02 14:51:19;;;;;;;3.10;1.30;;;18.50;99.90;;;;;;6234073;23;20012;-78
2022/06/02 14:53:47;;;;;;;1.83;1.30;;;18.40;99.90;;;;;;6249240;22;20067;-76
2022/06/02 14:56:32;;;;;;;2.00;1.00;;;18.30;99.90;;;;;;6252972;22;20011;-76
2022/06/02 14:59:08;;;;;;;3.75;1.10;;;18.30;99.90;;;;;;6254691;22;20327;-75
2022/06/02 15:02:06;;;;;;;2.88;1.08;;;18.20;99.90;;;;;;6225862;22;20472;-76
2022/06/02 15:04:41;;;;;;;2.35;1.20;;;18.10;99.90;;;;;;6172854;22;20382;-77
2022/06/02 15:07:25;;;;;;;3.70;1.47;;;18.10;99.90;;;;;;6251148;22;20028;-78
2022/06/02 15:10:07;;;;;;;2.15;1.10;;;18.10;99.90;;;;;;6252298;22;20035;-75
2022/06/02 15:13:23;;;;;;;3.28;1.30;;;18.10;99.90;;;;;;6250867;22;20323;-78
2022/06/02 15:16:08;;;;;;;3.27;1.30;;;18.10;99.90;;;;;;6278089;22;20019;-76
2022/06/02 15:18:56;;;;;;;2.13;1.10;;;18.10;99.90;;;;;;6277560;22;20237;-78
2022/06/02 15:21:39;;;;;;;2.35;1.10;;;18.30;99.90;;;;;;6276961;22;20015;-78
2022/06/02 15:24:11;;;;;;;1.83;1.10;;;18.40;99.90;;;;;;6249954;22;20460;-77
2022/06/02 15:27:06;;;;;;;4.10;1.20;;;18.60;99.90;;;;;;6249878;22;20008;-76
2022/06/02 15:29:55;;;;;;;2.70;1.30;;;18.80;99.90;;;;;;6224569;22;20026;-77
2022/06/02 15:32:49;;;;;;;4.70;1.27;;;19.00;99.90;;;;;;6277043;22;20533;-78
2022/06/02 15:35:43;;;;;;;2.65;1.10;;;19.20;99.90;;;;;;6249840;22;20126;-78
2022/06/02 15:38:20;;;;;;;2.33;0.90;;;19.40;99.90;;;;;;6277049;22;20019;-78
2022/06/02 15:41:18;;;;;;;3.20;1.35;;;19.50;99.90;;;;;;6249762;22;20007;-80
2022/06/02 15:43:53;;;;;;;3.72;1.25;;;19.60;99.90;;;;;;6227730;22;20014;-78
2022/06/02 15:46:40;;;;;;;1.50;0.85;;;19.80;99.90;;;;;;6249968;22;20011;-78
2022/06/02 15:49:52;;;;;;;1.85;1.20;;;20.10;99.90;;;;;;6224213;22;20436;-77
2022/06/02 15:52:42;;;;;;;2.50;1.20;;;20.40;99.90;;;;;;6277056;22;20012;-76
2022/06/02 15:55:43;;;;;;;1.38;0.95;;;20.70;99.90;;;;;;6249833;22;20012;-78
2022/06/02 15:58:11;;;;;;;2.55;0.90;;;20.90;99.90;;;;;;6250556;22;20012;-77
2022/06/02 16:01:07;;;;;;;3.20;1.20;;;20.80;99.90;;;;;;6276819;22;20330;-77
2022/06/02 16:04:10;;;;;;;2.88;1.20;;;20.80;99.90;;;;;;6249841;22;20332;-77
2022/06/02 16:07:05;;;;;;;4.72;1.10;;;20.90;99.90;;;;;;6249642;22;20388;-78
2022/06/02 16:13:02;;;;;;;2.72;1.63;;;20.80;99.90;;;;;;6249545;22;20015;-78
2022/06/02 16:15:53;;;;;;;2.65;1.10;;;20.60;99.90;;;;;;6277009;22;20376;-78
2022/06/02 16:18:50;;;;;;;2.35;1.15;;;20.60;99.90;;;;;;6249739;22;20016;-78
2022/06/02 16:21:48;;;;;;;2.45;1.30;;;20.70;99.90;;;;;;6223265;22;20023;-78
2022/06/02 16:24:41;;;;;;;3.30;1.20;;;20.70;99.90;;;;;;6250423;22;20495;-77
2022/06/02 16:27:22;;;;;;;2.97;1.40;;;20.70;99.90;;;;;;6249302;22;20090;-78
2022/06/02 16:30:12;;;;;;;2.58;1.15;;;20.50;99.90;;;;;;6249490;22;20015;-78
2022/06/02 16:33:02;;;;;;;5.20;1.30;;;20.40;99.90;;;;;;6225215;22;20007;-78
2022/06/02 16:36:08;;;;;;;2.80;1.23;;;20.60;99.90;;;;;;6251548;22;20022;-77
2022/06/02 16:38:52;;;;;;;1.83;0.93;;;20.40;99.90;;;;;;6251443;22;20011;-78
2022/06/02 16:42:02;;;;;;;4.95;1.30;;;20.50;99.90;;;;;;6251497;22;20023;-77
2022/06/02 16:45:05;;;;;;;1.95;1.20;;;20.60;99.90;;;;;;6246354;22;20008;-78
2022/06/02 16:48:06;;;;;;;2.38;1.42;;;20.60;99.90;;;;;;6251191;22;20019;-78
2022/06/02 16:51:09;;;;;;;2.58;1.52;;;20.50;99.90;;;;;;6250952;22;20098;-79
2022/06/02 16:53:55;;;;;;;5.10;1.20;;;20.70;99.90;;;;;;6251005;22;20077;-81
2022/06/02 16:56:43;;;;;;;1.70;1.10;;;20.80;99.90;;;;;;6194952;22;20007;-78
2022/06/02 16:59:28;;;;;;;4.97;1.20;;;20.70;99.90;;;;;;6278411;22;20035;-78
2022/06/02 17:02:14;;;;;;;2.47;1.17;;;20.60;99.90;;;;;;6277964;22;20087;-77
2022/06/02 17:05:06;;;;;;;3.17;1.30;;;20.50;99.90;;;;;;6251134;22;20031;-77
2022/06/02 17:07:31;;;;;;;3.83;1.20;;;20.50;99.90;;;;;;6278764;22;20069;-78
2022/06/02 17:10:18;;;;;;;2.58;1.20;;;20.40;99.90;;;;;;6225488;22;20012;-77
2022/06/02 17:13:28;;;;;;;2.00;1.10;;;20.50;99.90;;;;;;6278081;22;20087;-78
2022/06/02 17:16:00;;;;;;;2.20;1.42;;;20.50;99.90;;;;;;6247521;22;20008;-78
2022/06/02 17:18:45;;;;;;;3.10;1.58;;;20.50;99.90;;;;;;6277776;22;20019;-77
2022/06/02 17:21:32;;;;;;;3.50;1.50;;;20.60;99.90;;;;;;6250723;22;20022;-78
2022/06/02 17:24:17;;;;;;;3.42;1.40;;;20.70;99.90;;;;;;6250734;22;20045;-77
2022/06/02 17:27:11;;;;;;;2.88;1.40;;;20.70;99.90;;;;;;6278898;22;20035;-78
2022/06/02 17:30:03;;;;;;;2.97;1.67;;;20.60;99.90;;;;;;6251302;22;20020;-77
2022/06/02 17:32:46;;;;;;;2.80;1.30;;;20.70;99.90;;;;;;6276938;22;20102;-78
2022/06/02 17:35:12;;;;;;;2.50;1.30;;;20.60;99.90;;;;;;6251024;22;20030;-78